createdAt,value
2022-09-30T00:01:59.206Z,100.00
2022-09-30T00:07:00.842Z,100.00
2022-09-30T00:12:02.486Z,100.00
2022-09-30T00:17:04.021Z,100.00
2022-09-30T00:22:05.584Z,100.00
2022-09-30T00:27:07.177Z,100.00
2022-09-30T00:32:08.688Z,100.00
2022-09-30T00:37:11.704Z,100.00
2022-09-30T00:42:15.158Z,100.00
2022-09-30T00:47:45.900Z,100.00
2022-09-30T00:53:11.516Z,100.00
2022-09-30T00:58:20.525Z,100.00
2022-09-30T01:03:23.122Z,100.00
2022-09-30T01:08:25.733Z,100.00
2022-09-30T01:13:29.147Z,100.00
2022-09-30T01:18:59.616Z,99.42
2022-09-30T01:24:25.811Z,100.00
2022-09-30T01:30:01.340Z,100.00
2022-09-30T01:35:28.015Z,100.00
2022-09-30T01:40:59.469Z,100.00
2022-09-30T01:46:10.404Z,100.00
2022-09-30T01:51:35.374Z,100.00
2022-09-30T01:56:46.475Z,100.00
2022-09-30T02:01:54.372Z,100.00
2022-09-30T02:07:00.749Z,100.00
2022-09-30T02:12:07.268Z,100.00
2022-09-30T02:17:16.859Z,100.00
2022-09-30T02:22:21.872Z,100.00
2022-09-30T02:27:29.916Z,100.00
2022-09-30T02:32:49.299Z,100.00
2022-09-30T02:37:56.105Z,100.00
2022-09-30T02:42:57.954Z,100.00
2022-09-30T02:48:35.625Z,100.00
2022-09-30T02:53:47.191Z,100.00
2022-09-30T02:58:51.475Z,100.00
2022-09-30T03:04:00.105Z,100.00
2022-09-30T03:09:02.338Z,100.00
2022-09-30T03:14:24.251Z,100.00
2022-09-30T03:19:53.669Z,100.00
2022-09-30T03:25:30.543Z,100.00
2022-09-30T03:30:33.772Z,100.00
2022-09-30T03:35:48.985Z,100.00
2022-09-30T03:41:12.935Z,100.00
2022-09-30T03:46:23.469Z,100.00
2022-09-30T03:51:25.275Z,100.00
2022-09-30T03:56:29.686Z,100.00
2022-09-30T04:01:31.223Z,100.00
2022-09-30T04:06:32.768Z,100.00
2022-09-30T04:11:34.327Z,100.00
2022-09-30T04:16:35.958Z,100.00
2022-09-30T04:21:37.635Z,100.00
2022-09-30T04:26:39.253Z,100.00
2022-09-30T04:31:41.196Z,100.00
2022-09-30T04:36:43.200Z,100.00
2022-09-30T04:41:45.001Z,100.00
2022-09-30T04:46:46.654Z,100.00
2022-09-30T04:51:48.571Z,100.00
2022-09-30T04:56:50.057Z,100.00
2022-09-30T05:01:51.657Z,100.00
2022-09-30T05:06:53.355Z,100.00
2022-09-30T05:11:55.054Z,100.00
2022-09-30T05:16:56.580Z,100.00
2022-09-30T05:21:58.212Z,100.00
2022-09-30T05:26:59.870Z,100.00
2022-09-30T05:32:01.719Z,100.00
2022-09-30T05:37:03.264Z,100.00
2022-09-30T05:42:04.852Z,100.00
2022-09-30T05:47:06.558Z,100.00
2022-09-30T05:52:08.299Z,100.00
2022-09-30T05:57:10.109Z,100.00
2022-09-30T06:02:11.772Z,100.00
2022-09-30T06:07:13.909Z,100.00
2022-09-30T06:12:16.101Z,100.00
2022-09-30T06:17:18.587Z,100.00
2022-09-30T06:22:20.583Z,100.00
2022-09-30T06:27:22.332Z,100.00
2022-09-30T06:32:26.024Z,100.00
2022-09-30T06:37:27.559Z,100.00
2022-09-30T06:42:29.078Z,100.00
2022-09-30T06:47:33.196Z,100.00
2022-09-30T06:52:34.784Z,100.00
2022-09-30T06:57:36.410Z,100.00
2022-09-30T07:02:39.957Z,100.00
2022-09-30T07:07:42.282Z,100.00
2022-09-30T07:12:43.868Z,96.73
2022-09-30T07:17:51.092Z,96.17
2022-09-30T07:22:52.678Z,95.76
2022-09-30T07:27:55.831Z,93.51
2022-09-30T07:32:57.455Z,94.09
2022-09-30T07:38:00.712Z,93.57
2022-09-30T07:43:03.317Z,92.84
2022-09-30T07:48:24.829Z,91.59
2022-09-30T07:53:26.426Z,88.54
2022-09-30T07:58:27.957Z,84.67
2022-09-30T08:03:29.503Z,82.83
2022-09-30T08:08:31.070Z,82.74
2022-09-30T08:13:33.402Z,79.97
2022-09-30T08:18:35.328Z,78.81
2022-09-30T08:23:36.864Z,79.59
2022-09-30T08:28:39.472Z,77.43
2022-09-30T08:33:42.162Z,79.69
2022-09-30T08:38:44.083Z,78.41
2022-09-30T08:44:07.589Z,77.69
2022-09-30T08:49:27.851Z,77.38
2022-09-30T08:54:39.907Z,75.74
2022-09-30T08:59:48.214Z,74.87
2022-09-30T09:04:52.559Z,76.27
2022-09-30T09:09:59.907Z,72.14
2022-09-30T09:15:23.481Z,70.71
2022-09-30T09:20:33.428Z,69.39
2022-09-30T09:25:35.144Z,68.94
2022-09-30T09:30:47.539Z,67.52
2022-09-30T09:36:02.377Z,65.76
2022-09-30T09:41:32.579Z,65.44
2022-09-30T09:47:15.087Z,63.30
2022-09-30T09:52:40.201Z,62.42
2022-09-30T09:57:41.841Z,59.31
2022-09-30T10:02:43.376Z,57.89
2022-09-30T10:07:45.257Z,54.10
2022-09-30T10:12:47.939Z,50.16
2022-09-30T10:17:55.534Z,48.39
2022-09-30T10:23:20.173Z,50.60
2022-09-30T10:28:30.219Z,45.18
2022-09-30T10:33:57.387Z,46.37
2022-09-30T10:39:29.968Z,46.64
2022-09-30T10:44:31.689Z,42.83
2022-09-30T10:49:41.636Z,45.19
2022-09-30T10:54:53.994Z,43.91
2022-09-30T11:00:05.187Z,44.09
2022-09-30T11:05:21.056Z,45.01
2022-09-30T11:10:41.771Z,42.78
2022-09-30T11:16:02.830Z,43.55
2022-09-30T11:21:21.950Z,42.43
2022-09-30T11:26:43.549Z,44.08
2022-09-30T11:32:11.869Z,43.30
2022-09-30T11:37:34.930Z,44.25
2022-09-30T11:42:44.294Z,43.56
2022-09-30T11:48:04.048Z,44.84
2022-09-30T11:53:13.426Z,42.22
2022-09-30T11:58:41.591Z,43.34
2022-09-30T12:03:50.359Z,42.35
2022-09-30T12:08:59.997Z,45.59
2022-09-30T12:14:10.518Z,44.41
2022-09-30T12:19:24.596Z,45.66
2022-09-30T12:24:37.162Z,43.84
2022-09-30T12:30:05.110Z,45.54
2022-09-30T12:35:21.587Z,47.94
2022-09-30T12:40:28.934Z,46.92
2022-09-30T12:45:33.459Z,48.90
2022-09-30T12:50:52.934Z,48.34
2022-09-30T12:56:01.648Z,46.66
2022-09-30T13:01:06.352Z,46.55
2022-09-30T13:06:08.110Z,46.19
2022-09-30T13:11:39.039Z,47.97
2022-09-30T13:17:01.242Z,46.53
2022-09-30T13:22:18.073Z,48.56
2022-09-30T13:27:34.075Z,47.58
2022-09-30T13:32:39.941Z,49.78
2022-09-30T13:37:41.588Z,47.13
2022-09-30T13:42:50.195Z,47.79
2022-09-30T13:48:16.429Z,48.58
2022-09-30T13:53:30.126Z,46.95
2022-09-30T13:59:09.870Z,46.66
2022-09-30T14:04:29.574Z,48.97
2022-09-30T14:10:08.398Z,47.98
2022-09-30T14:15:25.868Z,47.94
2022-09-30T14:20:45.651Z,48.80
2022-09-30T14:26:02.966Z,49.25
2022-09-30T14:31:13.045Z,48.10
2022-09-30T14:36:18.971Z,48.43
2022-09-30T14:41:23.366Z,50.49
2022-09-30T14:46:34.727Z,52.26
2022-09-30T14:51:47.129Z,49.90
2022-09-30T14:56:50.497Z,51.45
2022-09-30T15:01:55.865Z,51.33
2022-09-30T15:07:00.346Z,47.00
2022-09-30T15:12:18.108Z,50.96
2022-09-30T15:17:27.242Z,51.65
2022-09-30T15:22:30.322Z,53.36
2022-09-30T15:27:36.933Z,54.66
2022-09-30T15:32:38.601Z,55.13
2022-09-30T15:37:40.326Z,56.44
2022-09-30T15:42:53.532Z,54.96
2022-09-30T15:48:02.426Z,54.58
2022-09-30T15:53:31.346Z,56.79
2022-09-30T15:58:39.038Z,57.44
2022-09-30T16:03:57.352Z,58.23
2022-09-30T16:09:26.306Z,58.84
2022-09-30T16:14:31.854Z,59.42
2022-09-30T16:19:34.577Z,58.75
2022-09-30T16:24:36.338Z,58.37
2022-09-30T16:29:38.060Z,59.02
2022-09-30T16:34:40.455Z,60.04
2022-09-30T16:39:42.180Z,60.64
2022-09-30T16:44:45.371Z,63.96
2022-09-30T16:49:47.723Z,66.34
2022-09-30T16:54:49.413Z,68.75
2022-09-30T16:59:51.555Z,69.88
2022-09-30T17:04:53.345Z,71.54
2022-09-30T17:09:55.014Z,72.54
2022-09-30T17:14:57.107Z,74.33
2022-09-30T17:19:59.142Z,76.01
2022-09-30T17:25:01.070Z,76.91
2022-09-30T17:30:04.151Z,77.91
2022-09-30T17:35:08.475Z,78.88
2022-09-30T17:40:29.189Z,80.26
2022-09-30T17:45:30.830Z,80.94
2022-09-30T17:50:32.535Z,82.30
2022-09-30T17:55:35.069Z,84.19
2022-09-30T18:00:37.672Z,85.50
2022-09-30T18:05:39.290Z,86.13
2022-09-30T18:10:40.896Z,85.84
2022-09-30T18:15:42.443Z,86.74
2022-09-30T18:20:45.963Z,87.76
2022-09-30T18:25:49.669Z,86.58
2022-09-30T18:30:51.356Z,86.46
2022-09-30T18:35:52.915Z,85.21
2022-09-30T18:40:54.554Z,85.30
2022-09-30T18:45:57.597Z,84.95
2022-09-30T18:51:03.544Z,85.11
2022-09-30T18:56:05.597Z,85.93
2022-09-30T19:01:07.801Z,86.42
2022-09-30T19:06:09.777Z,86.47
2022-09-30T19:11:16.241Z,87.80
2022-09-30T19:16:22.253Z,88.43
2022-09-30T19:21:23.867Z,89.50
2022-09-30T19:26:29.220Z,89.97
2022-09-30T19:31:32.633Z,90.69
2022-09-30T19:36:44.635Z,90.49
2022-09-30T19:41:50.816Z,92.01
2022-09-30T19:46:52.402Z,91.38
2022-09-30T19:51:53.946Z,92.22
2022-09-30T19:56:55.597Z,92.11
2022-09-30T20:01:57.215Z,91.10
2022-09-30T20:06:59.331Z,91.33
2022-09-30T20:12:01.139Z,89.68
2022-09-30T20:17:02.692Z,89.80
2022-09-30T20:22:05.321Z,89.73
2022-09-30T20:27:06.820Z,88.62
2022-09-30T20:32:08.382Z,88.45
2022-09-30T20:37:10.032Z,88.28
2022-09-30T20:42:11.611Z,88.85
2022-09-30T20:47:13.215Z,86.55
2022-09-30T20:52:15.172Z,87.59
2022-09-30T20:57:16.708Z,86.95
2022-09-30T21:02:18.279Z,85.18
2022-09-30T21:07:21.110Z,86.38
2022-09-30T21:12:22.909Z,85.24
2022-09-30T21:17:24.531Z,82.19
2022-09-30T21:22:26.151Z,80.97
2022-09-30T21:27:27.727Z,81.33
2022-09-30T21:32:29.354Z,83.70
2022-09-30T21:37:31.048Z,85.90
2022-09-30T21:42:32.823Z,87.32
2022-09-30T21:47:34.355Z,88.85
2022-09-30T21:52:38.284Z,90.50
2022-09-30T21:57:40.119Z,91.43
2022-09-30T22:02:41.945Z,92.40
2022-09-30T22:07:43.643Z,93.89
2022-09-30T22:12:46.353Z,95.06
2022-09-30T22:17:49.816Z,96.66
2022-09-30T22:22:51.335Z,96.45
2022-09-30T22:27:52.882Z,96.82
2022-09-30T22:33:14.446Z,97.30
2022-09-30T22:38:16.047Z,97.93
2022-09-30T22:43:17.626Z,98.35
2022-09-30T22:48:19.285Z,99.77
2022-09-30T22:53:20.815Z,99.99
2022-09-30T22:58:26.719Z,99.92
2022-09-30T23:03:28.497Z,99.73
2022-09-30T23:08:41.223Z,100.00
2022-09-30T23:13:43.845Z,100.00
2022-09-30T23:18:46.372Z,100.00
2022-09-30T23:23:48.455Z,100.00
2022-09-30T23:28:49.987Z,100.00
2022-09-30T23:33:54.154Z,100.00
2022-09-30T23:39:01.073Z,100.00
2022-09-30T23:44:02.962Z,99.52
2022-09-30T23:49:04.864Z,98.59
2022-09-30T23:54:06.441Z,100.00
2022-09-30T23:59:08.092Z,100.00
